createdAt,value
2018-08-22T00:00:58.806Z,93699.59
2018-08-22T00:03:26.853Z,93700.47
2018-08-22T00:05:54.819Z,93698.20
2018-08-22T00:08:27.317Z,93691.44
2018-08-22T00:10:55.317Z,93698.89
2018-08-22T00:13:23.324Z,93698.59
2018-08-22T00:15:51.458Z,93697.86
2018-08-22T00:18:19.523Z,93702.12
2018-08-22T00:20:47.605Z,93697.16
2018-08-22T00:23:15.595Z,93691.30
2018-08-22T00:25:43.628Z,93701.09
2018-08-22T00:28:11.935Z,93691.30
2018-08-22T00:30:39.976Z,93689.52
2018-08-22T00:33:08.058Z,93698.40
2018-08-22T00:35:36.060Z,93699.25
2018-08-22T00:38:04.052Z,93702.24
2018-08-22T00:40:32.244Z,93689.89
2018-08-22T00:43:00.340Z,93694.94
2018-08-22T00:45:28.367Z,93689.72
2018-08-22T00:47:56.563Z,93689.13
2018-08-22T00:50:24.605Z,93689.39
2018-08-22T00:52:52.652Z,93696.77
2018-08-22T00:55:20.758Z,93693.08
2018-08-22T00:57:48.868Z,93695.24
2018-08-22T01:00:17.153Z,93700.11
2018-08-22T01:02:45.231Z,93703.12
2018-08-22T01:05:13.294Z,93700.39
2018-08-22T01:07:41.274Z,93700.13
2018-08-22T01:10:09.666Z,93699.31
2018-08-22T01:12:38.074Z,93705.63
2018-08-22T01:15:06.204Z,93697.39
2018-08-22T01:17:34.293Z,93695.38
2018-08-22T01:20:02.517Z,93698.94
2018-08-22T01:22:30.636Z,93694.78
2018-08-22T01:24:58.667Z,93692.88
2018-08-22T01:27:26.925Z,93688.62
2018-08-22T01:29:55.030Z,93686.83
2018-08-22T01:32:23.146Z,93690.75
2018-08-22T01:34:52.220Z,93689.55
2018-08-22T01:37:20.217Z,93684.09
2018-08-22T01:39:48.907Z,93685.14
2018-08-22T01:42:17.489Z,93684.09
2018-08-22T01:44:46.043Z,93683.27
2018-08-22T01:47:14.157Z,93683.12
2018-08-22T01:49:42.475Z,93690.75
2018-08-22T01:52:10.664Z,93691.30
2018-08-22T01:54:38.692Z,93692.50
2018-08-22T01:57:06.730Z,93698.66
2018-08-22T01:59:34.868Z,93706.39
2018-08-22T02:02:02.941Z,93696.52
2018-08-22T02:04:30.972Z,93705.87
2018-08-22T02:06:59.173Z,93699.59
2018-08-22T02:09:27.281Z,93707.09
2018-08-22T02:11:55.395Z,93704.73
2018-08-22T02:14:23.393Z,93703.16
2018-08-22T02:16:51.492Z,93701.98
2018-08-22T02:19:19.564Z,93696.89
2018-08-22T02:21:47.732Z,93699.84
2018-08-22T02:24:15.829Z,93705.89
2018-08-22T02:26:43.888Z,93707.34
2018-08-22T02:29:11.977Z,93702.11
2018-08-22T02:31:40.069Z,93694.27
2018-08-22T02:34:08.189Z,93700.30
2018-08-22T02:36:36.249Z,93685.90
2018-08-22T02:39:06.294Z,93693.85
2018-08-22T02:41:34.490Z,93699.55
2018-08-22T02:44:02.603Z,93693.13
2018-08-22T02:46:30.614Z,93694.43
2018-08-22T02:48:58.604Z,93697.87
2018-08-22T02:51:26.809Z,93698.86
2018-08-22T02:53:54.938Z,93697.88
2018-08-22T02:56:22.998Z,93695.64
2018-08-22T02:58:51.246Z,93698.84
2018-08-22T03:01:19.682Z,93698.45
2018-08-22T03:03:47.895Z,93704.64
2018-08-22T03:06:16.004Z,93709.36
2018-08-22T03:08:44.316Z,93708.88
2018-08-22T03:11:12.698Z,93710.78
2018-08-22T03:13:40.838Z,93718.73
2018-08-22T03:16:08.878Z,93715.18
2018-08-22T03:18:36.972Z,93709.72
2018-08-22T03:22:08.232Z,93712.44
2018-08-22T03:24:36.360Z,93709.55
2018-08-22T03:27:04.470Z,93709.53
2018-08-22T03:29:32.561Z,93714.73
2018-08-22T03:32:00.687Z,93711.99
2018-08-22T03:34:28.742Z,93712.98
2018-08-22T03:36:56.951Z,93716.05
2018-08-22T03:39:24.948Z,93718.20
2018-08-22T03:41:52.945Z,93726.13
2018-08-22T03:44:21.095Z,93731.86
2018-08-22T03:46:49.123Z,93736.55
2018-08-22T03:49:17.188Z,93727.99
2018-08-22T03:51:45.306Z,93728.66
2018-08-22T03:54:13.479Z,93730.20
2018-08-22T03:56:41.602Z,93735.97
2018-08-22T03:59:09.733Z,93737.30
2018-08-22T04:01:37.900Z,93745.98
2018-08-22T04:04:05.962Z,93739.69
2018-08-22T04:06:34.314Z,93743.39
2018-08-22T04:09:02.545Z,93746.41
2018-08-22T04:11:30.607Z,93751.16
2018-08-22T04:13:58.626Z,93739.62
2018-08-22T04:16:26.836Z,93751.95
2018-08-22T04:18:55.017Z,93758.55
2018-08-22T04:21:23.127Z,93756.30
2018-08-22T04:23:51.201Z,93758.61
2018-08-22T04:26:19.379Z,93762.38
2018-08-22T04:28:47.487Z,93771.04
2018-08-22T04:31:15.563Z,93775.25
2018-08-22T04:33:43.636Z,93778.45
2018-08-22T04:36:11.925Z,93776.79
2018-08-22T04:38:40.377Z,93772.45
2018-08-22T04:41:08.549Z,93774.65
2018-08-22T04:43:36.670Z,93783.56
2018-08-22T04:46:04.913Z,93782.53
2018-08-22T04:48:33.033Z,93781.72
2018-08-22T04:51:01.213Z,93788.54
2018-08-22T04:53:29.395Z,93783.23
2018-08-22T04:55:57.618Z,93777.56
2018-08-22T04:58:25.670Z,93787.98
2018-08-22T05:00:53.933Z,93781.13
2018-08-22T05:03:22.015Z,93784.41
2018-08-22T05:05:50.213Z,93779.34
2018-08-22T05:08:18.317Z,93787.06
2018-08-22T05:10:46.515Z,93782.61
2018-08-22T05:13:14.550Z,93784.89
2018-08-22T05:15:42.954Z,93788.36
2018-08-22T05:18:11.199Z,93785.71
2018-08-22T05:20:39.475Z,93789.80
2018-08-22T05:23:07.539Z,93794.94
2018-08-22T05:25:35.642Z,93791.02
2018-08-22T05:28:03.728Z,93792.13
2018-08-22T05:30:31.877Z,93789.64
2018-08-22T05:33:00.111Z,93784.94
2018-08-22T05:35:28.653Z,93783.28
2018-08-22T05:37:56.832Z,93774.98
2018-08-22T05:40:25.023Z,93776.19
2018-08-22T05:42:53.344Z,93790.28
2018-08-22T05:45:21.774Z,93787.23
2018-08-22T05:47:49.949Z,93800.82
2018-08-22T05:50:18.100Z,93797.85
2018-08-22T05:52:46.246Z,93791.07
2018-08-22T05:55:14.309Z,93790.56
2018-08-22T05:57:42.514Z,93793.69
2018-08-22T06:00:10.830Z,93796.50
2018-08-22T06:02:39.017Z,93794.20
2018-08-22T06:05:07.121Z,93792.05
2018-08-22T06:07:35.251Z,93785.93
2018-08-22T06:10:03.728Z,93791.06
2018-08-22T06:12:32.221Z,93788.56
2018-08-22T06:15:00.469Z,93788.73
2018-08-22T06:17:28.761Z,93790.36
2018-08-22T06:19:56.875Z,93793.97
2018-08-22T06:22:25.012Z,93787.91
2018-08-22T06:24:53.040Z,93789.47
2018-08-22T06:27:21.369Z,93793.33
2018-08-22T06:29:49.828Z,93791.59
2018-08-22T06:32:18.131Z,93792.09
2018-08-22T06:34:46.336Z,93788.89
2018-08-22T06:37:14.417Z,93796.01
2018-08-22T06:39:42.489Z,93800.09
2018-08-22T06:42:10.762Z,93796.83
2018-08-22T06:44:38.979Z,93796.33
2018-08-22T06:47:07.166Z,93800.31
2018-08-22T06:49:35.359Z,93799.53
2018-08-22T06:52:03.636Z,93808.77
2018-08-22T06:54:31.747Z,93804.83
2018-08-22T06:56:59.764Z,93804.63
2018-08-22T06:59:28.027Z,93812.44
2018-08-22T07:01:56.179Z,93806.25
2018-08-22T07:04:24.385Z,93813.31
2018-08-22T07:06:52.548Z,93811.09
2018-08-22T07:09:20.651Z,93810.83
2018-08-22T07:11:48.922Z,93810.88
2018-08-22T07:14:17.093Z,93805.53
2018-08-22T07:16:45.483Z,93806.95
2018-08-22T07:19:13.751Z,93807.39
2018-08-22T07:21:42.046Z,93808.21
2018-08-22T07:24:10.361Z,93813.73
2018-08-22T07:26:38.731Z,93804.98
2018-08-22T07:29:07.177Z,93803.20
2018-08-22T07:31:35.608Z,93807.94
2018-08-22T07:34:14.722Z,93810.33
2018-08-22T07:36:44.011Z,93809.89
2018-08-22T07:39:17.038Z,93809.00
2018-08-22T07:41:49.504Z,93806.72
2018-08-22T07:44:18.575Z,93808.16
2018-08-22T07:46:46.837Z,93806.93
2018-08-22T07:49:15.552Z,93804.09
2018-08-22T07:51:44.120Z,93801.61
2018-08-22T07:54:12.650Z,93803.67
2018-08-22T07:56:41.783Z,93797.86
2018-08-22T07:59:12.415Z,93802.66
2018-08-22T08:01:40.693Z,93798.10
2018-08-22T08:04:10.397Z,93793.73
2018-08-22T08:06:38.493Z,93791.69
2018-08-22T08:09:10.105Z,93793.20
2018-08-22T08:11:38.307Z,93787.00
2018-08-22T08:14:06.905Z,93785.75
2018-08-22T08:16:35.253Z,93785.14
2018-08-22T08:19:03.618Z,93782.74
2018-08-22T08:21:31.960Z,93787.87
2018-08-22T08:24:00.249Z,93786.70
2018-08-22T08:26:28.516Z,93779.31
2018-08-22T08:29:02.917Z,93782.50
2018-08-22T08:31:35.828Z,93781.61
2018-08-22T08:34:06.042Z,93780.44
2018-08-22T08:36:34.413Z,93778.77
2018-08-22T08:39:03.681Z,93775.02
2018-08-22T08:41:32.715Z,93774.00
2018-08-22T08:44:00.978Z,93773.91
2018-08-22T08:46:29.223Z,93764.94
2018-08-22T08:48:57.616Z,93766.67
2018-08-22T08:51:26.027Z,93767.19
2018-08-22T08:53:54.434Z,93781.70
2018-08-22T08:56:22.748Z,93774.59
2018-08-22T08:58:52.956Z,93775.73
2018-08-22T09:01:21.373Z,93777.37
2018-08-22T09:03:49.765Z,93770.09
2018-08-22T09:06:18.018Z,93768.01
2018-08-22T09:08:46.332Z,93779.36
2018-08-22T09:11:14.747Z,93777.60
2018-08-22T09:13:58.055Z,93772.05
2018-08-22T09:16:26.570Z,93775.54
2018-08-22T09:18:55.130Z,93787.23
2018-08-22T09:21:24.739Z,93764.48
2018-08-22T09:23:53.230Z,93775.97
2018-08-22T09:26:23.440Z,93760.70
2018-08-22T09:28:51.841Z,93759.98
2018-08-22T09:31:20.682Z,93759.02
2018-08-22T09:33:49.313Z,93762.03
2018-08-22T09:36:17.860Z,93752.09
2018-08-22T09:38:47.432Z,93753.45
2018-08-22T09:41:16.706Z,93751.48
2018-08-22T09:43:45.252Z,93744.05
2018-08-22T09:46:14.061Z,93735.30
2018-08-22T09:48:42.753Z,93737.86
2018-08-22T09:51:11.230Z,93748.39
2018-08-22T09:53:39.912Z,93734.79
2018-08-22T09:56:08.783Z,93749.52
2018-08-22T09:58:37.386Z,93734.09
2018-08-22T10:01:11.374Z,93741.67
2018-08-22T10:03:51.153Z,93747.69
2018-08-22T10:06:50.905Z,93733.66
2018-08-22T11:45:11.129Z,93654.57
2018-08-22T11:47:39.590Z,93662.48
2018-08-22T11:50:08.102Z,93660.76
2018-08-22T11:52:36.613Z,93650.27
2018-08-22T11:55:05.910Z,93661.06
2018-08-22T11:57:34.399Z,93643.04
2018-08-22T12:00:02.911Z,93649.43
2018-08-22T12:02:32.383Z,93643.20
2018-08-22T12:05:00.785Z,93643.55
2018-08-22T12:07:30.959Z,93637.85
2018-08-22T12:09:59.464Z,93643.56
2018-08-22T12:12:28.063Z,93631.75
2018-08-22T12:14:57.193Z,93633.70
2018-08-22T12:17:25.748Z,93634.67
2018-08-22T12:19:54.087Z,93628.19
2018-08-22T12:22:22.314Z,93627.84
2018-08-22T12:24:50.598Z,93625.41
2018-08-22T12:27:18.930Z,93630.23
2018-08-22T12:29:47.329Z,93624.86
2018-08-22T12:32:15.829Z,93627.32
2018-08-22T12:34:44.116Z,93624.33
2018-08-22T12:37:12.516Z,93628.63
2018-08-22T12:39:40.794Z,93631.47
2018-08-22T12:42:09.084Z,93618.94
2018-08-22T12:44:37.879Z,93626.32
2018-08-22T12:47:06.271Z,93620.80
2018-08-22T12:49:34.694Z,93624.62
2018-08-22T12:52:03.237Z,93619.58
2018-08-22T12:54:31.545Z,93615.16
2018-08-22T12:57:00.059Z,93614.42
2018-08-22T12:59:28.729Z,93614.63
2018-08-22T13:01:57.603Z,93613.61
2018-08-22T13:04:26.037Z,93608.98
2018-08-22T13:06:54.293Z,93606.47
2018-08-22T13:09:22.680Z,93606.03
2018-08-22T13:11:51.314Z,93601.41
2018-08-22T13:14:20.239Z,93600.02
2018-08-22T13:16:50.196Z,93603.92
2018-08-22T13:19:20.998Z,93601.56
2018-08-22T13:21:49.883Z,93603.95
2018-08-22T13:24:18.233Z,93600.02
2018-08-22T13:26:46.579Z,93603.11
2018-08-22T13:29:14.909Z,93600.20
2018-08-22T13:31:43.444Z,93599.09
2018-08-22T13:34:11.793Z,93596.83
2018-08-22T13:36:41.813Z,93597.72
2018-08-22T13:39:11.104Z,93594.42
2018-08-22T13:41:39.485Z,93584.08
2018-08-22T13:44:08.063Z,93593.36
2018-08-22T13:46:36.470Z,93588.81
2018-08-22T13:49:04.755Z,93587.30
2018-08-22T13:51:33.237Z,93572.59
2018-08-22T13:54:01.723Z,93582.28
2018-08-22T13:56:30.259Z,93573.82
2018-08-22T13:58:58.589Z,93593.98
2018-08-22T14:01:26.991Z,93579.19
2018-08-22T14:03:55.925Z,93574.52
2018-08-22T14:06:24.154Z,93565.91
2018-08-22T14:08:52.601Z,93573.30
2018-08-22T14:11:21.012Z,93574.84
2018-08-22T14:13:49.857Z,93568.36
2018-08-22T14:16:18.639Z,93577.34
2018-08-22T14:18:46.986Z,93572.06
2018-08-22T14:21:15.266Z,93585.31
2018-08-22T14:23:43.611Z,93566.50
2018-08-22T14:26:12.162Z,93559.20
2018-08-22T14:28:41.067Z,93571.85
2018-08-22T14:31:09.581Z,93562.12
2018-08-22T14:33:38.257Z,93566.86
2018-08-22T14:36:08.063Z,93550.60
2018-08-22T14:38:36.683Z,93560.94
2018-08-22T14:41:05.129Z,93562.20
2018-08-22T14:43:33.667Z,93560.33
2018-08-22T14:46:02.366Z,93561.16
2018-08-22T14:48:33.260Z,93541.62
2018-08-22T14:51:02.218Z,93558.06
2018-08-22T14:53:30.745Z,93550.97
2018-08-22T14:55:59.216Z,93557.97
2018-08-22T14:58:27.676Z,93555.28
2018-08-22T15:00:56.160Z,93557.55
2018-08-22T15:03:25.216Z,93559.50
2018-08-22T15:05:53.442Z,93560.22
2018-08-22T15:08:21.920Z,93550.54
2018-08-22T15:10:50.320Z,93555.47
2018-08-22T15:13:18.841Z,93545.52
2018-08-22T15:15:47.516Z,93556.11
2018-08-22T15:18:15.925Z,93544.58
2018-08-22T15:20:44.452Z,93543.77
2018-08-22T15:23:12.938Z,93546.44
2018-08-22T15:25:41.384Z,93545.92
2018-08-22T15:28:10.086Z,93544.83
2018-08-22T15:30:38.394Z,93550.27
2018-08-22T15:33:06.785Z,93546.98
2018-08-22T15:35:35.295Z,93550.27
2018-08-22T15:38:03.796Z,93555.78
2018-08-22T15:40:32.193Z,93556.30
2018-08-22T15:43:00.648Z,93555.77
2018-08-22T15:45:29.145Z,93554.73
2018-08-22T15:47:57.469Z,93564.55
2018-08-22T15:50:25.946Z,93553.21
2018-08-22T15:52:54.359Z,93556.41
2018-08-22T15:55:22.803Z,93563.50
2018-08-22T15:58:00.954Z,93561.47
2018-08-22T16:00:50.789Z,93553.30
2018-08-22T16:03:19.399Z,93554.11
2018-08-22T16:05:48.655Z,93551.82
2018-08-22T16:08:18.978Z,93554.95
2018-08-22T16:10:47.953Z,93556.66
2018-08-22T16:13:21.801Z,93553.55
2018-08-22T16:15:52.460Z,93551.05
2018-08-22T16:18:21.078Z,93557.72
2018-08-22T16:20:55.961Z,93557.41
2018-08-22T16:23:26.003Z,93554.03
2018-08-22T16:25:55.055Z,93555.17
2018-08-22T16:28:23.904Z,93555.48
2018-08-22T16:30:57.046Z,93554.56
2018-08-22T16:33:21.812Z,93554.13
2018-08-22T16:35:50.086Z,93557.68
2018-08-22T16:38:18.367Z,93556.08
2018-08-22T16:40:50.951Z,93558.30
2018-08-22T16:43:35.787Z,93556.10
2018-08-22T16:46:07.083Z,93565.67
2018-08-22T16:48:35.408Z,93556.98
2018-08-22T16:51:03.800Z,93563.11
2018-08-22T16:53:32.368Z,93564.88
2018-08-22T16:56:04.314Z,93569.95
2018-08-22T16:58:33.390Z,93574.33
2018-08-22T17:01:02.550Z,93571.35
2018-08-22T17:03:31.160Z,93575.73
2018-08-22T17:06:05.772Z,93574.95
2018-08-22T17:08:34.258Z,93581.30
2018-08-22T17:11:03.904Z,93585.89
2018-08-22T17:13:46.397Z,93585.81
2018-08-22T17:16:14.765Z,93581.34
2018-08-22T17:18:44.112Z,93585.48
2018-08-22T17:21:12.467Z,93589.53
2018-08-22T17:23:42.582Z,93581.64
2018-08-22T17:26:14.419Z,93586.78
2018-08-22T17:28:44.776Z,93589.29
2018-08-22T17:31:13.796Z,93591.33
2018-08-22T17:33:47.527Z,93588.72
2018-08-22T17:36:17.814Z,93593.88
2018-08-22T17:38:47.496Z,93598.30
2018-08-22T17:41:16.017Z,93600.16
2018-08-22T17:43:58.499Z,93599.36
2018-08-22T17:46:28.331Z,93602.40
2018-08-22T17:48:57.046Z,93607.41
2018-08-22T17:51:25.947Z,93611.05
2018-08-22T17:53:55.001Z,93608.22
2018-08-22T17:56:24.361Z,93616.01
2018-08-22T17:58:53.739Z,93617.62
2018-08-22T18:01:22.788Z,93619.45
2018-08-22T18:03:52.395Z,93627.72
2018-08-22T18:06:23.227Z,93627.72
2018-08-22T18:08:52.223Z,93627.56
2018-08-22T18:11:21.259Z,93633.84
2018-08-22T18:13:49.636Z,93636.64
2018-08-22T18:16:19.153Z,93634.10
2018-08-22T18:18:50.277Z,93637.87
2018-08-22T18:21:19.010Z,93641.06
2018-08-22T18:23:53.181Z,93652.61
2018-08-22T18:26:22.125Z,93651.53
2018-08-22T18:28:51.216Z,93657.78
2018-08-22T18:31:19.825Z,93658.73
2018-08-22T18:34:02.451Z,93661.05
2018-08-22T18:36:31.861Z,93659.92
2018-08-22T18:39:12.378Z,93662.19
2018-08-22T18:41:40.798Z,93671.69
2018-08-22T18:44:09.031Z,93667.80
2018-08-22T18:46:37.422Z,93672.11
2018-08-22T18:49:06.085Z,93675.83
2018-08-22T18:51:35.164Z,93669.05
2018-08-22T18:54:04.398Z,93669.47
2018-08-22T18:56:32.559Z,93682.62
2018-08-22T18:59:33.124Z,93678.56
2018-08-22T19:02:01.435Z,93684.73
2018-08-22T19:04:29.656Z,93686.11
2018-08-22T19:06:57.860Z,93682.44
2018-08-22T19:09:25.996Z,93686.25
2018-08-22T19:11:54.190Z,93687.86
2018-08-22T19:14:36.831Z,93686.61
2018-08-22T19:17:05.010Z,93687.45
2018-08-22T19:19:37.628Z,93690.80
2018-08-22T19:22:05.832Z,93694.58
2018-08-22T19:24:34.513Z,93693.58
2018-08-22T19:27:03.002Z,93688.55
2018-08-22T19:29:31.480Z,93696.61
2018-08-22T19:31:59.708Z,93693.62
2018-08-22T19:34:27.907Z,93695.73
2018-08-22T19:36:56.147Z,93692.52
2018-08-22T19:39:24.403Z,93695.55
2018-08-22T19:41:52.846Z,93696.33
2018-08-22T19:44:21.030Z,93689.48
2018-08-22T19:46:49.153Z,93693.86
2018-08-22T19:49:17.243Z,93688.08
2018-08-22T19:51:45.415Z,93682.97
2018-08-22T19:54:13.613Z,93679.73
2018-08-22T19:56:41.735Z,93675.20
2018-08-22T19:59:09.825Z,93678.19
2018-08-22T20:01:38.048Z,93683.06
2018-08-22T20:04:06.121Z,93681.56
2018-08-22T20:06:34.312Z,93681.34
2018-08-22T20:09:02.667Z,93686.30
2018-08-22T20:11:32.440Z,93686.44
2018-08-22T20:14:02.343Z,93682.13
2018-08-22T20:16:30.482Z,93683.84
2018-08-22T20:19:00.223Z,93677.53
2018-08-22T20:21:35.979Z,93679.20
2018-08-22T20:24:05.481Z,93675.53
2018-08-22T20:26:33.964Z,93674.50
2018-08-22T20:29:03.408Z,93681.25
2018-08-22T20:31:32.433Z,93681.89
2018-08-22T20:34:12.349Z,93680.35
2018-08-22T20:36:42.146Z,93677.34
2018-08-22T20:39:11.345Z,93682.84
2018-08-22T20:41:40.241Z,93681.44
2018-08-22T20:44:12.943Z,93684.54
2018-08-22T20:46:42.959Z,93690.87
2018-08-22T20:49:11.424Z,93684.44
2018-08-22T20:51:39.627Z,93682.84
2018-08-22T20:54:10.204Z,93682.37
2018-08-22T20:56:45.871Z,93679.25
2018-08-22T20:59:14.767Z,93685.56
2018-08-22T21:01:44.392Z,93684.66
2018-08-22T21:04:12.565Z,93691.88
2018-08-22T21:06:40.670Z,93690.14
2018-08-22T21:09:08.750Z,93686.14
2018-08-22T21:11:38.542Z,93691.21
2018-08-22T21:14:06.825Z,93691.02
2018-08-22T21:16:35.365Z,93698.14
2018-08-22T21:19:03.674Z,93703.62
2018-08-22T21:21:31.876Z,93697.27
2018-08-22T21:24:00.002Z,93704.62
2018-08-22T21:26:37.456Z,93700.11
2018-08-22T21:29:05.859Z,93694.86
2018-08-22T21:31:34.704Z,93701.90
2018-08-22T21:34:23.678Z,93709.58
2018-08-22T21:36:51.943Z,93704.73
2018-08-22T21:39:26.931Z,93712.83
2018-08-22T21:41:55.312Z,93716.02
2018-08-22T21:44:23.686Z,93717.50
2018-08-22T21:46:59.129Z,93718.61
2018-08-22T21:49:27.736Z,93711.27
2018-08-22T21:51:59.399Z,93702.89
2018-08-22T21:54:27.816Z,93711.56
2018-08-22T21:56:55.877Z,93712.25
2018-08-22T21:59:23.998Z,93710.30
2018-08-22T22:01:57.627Z,93711.55
2018-08-22T22:04:30.915Z,93713.95
2018-08-22T22:06:59.109Z,93713.81
2018-08-22T22:09:27.509Z,93717.45
2018-08-22T22:11:58.507Z,93709.03
2018-08-22T22:14:27.855Z,93704.29
2018-08-22T22:16:57.690Z,93698.88
2018-08-22T22:19:27.143Z,93712.16
2018-08-22T22:21:55.544Z,93709.27
2018-08-22T22:24:23.680Z,93709.25
2018-08-22T22:26:51.740Z,93712.90
2018-08-22T22:29:23.138Z,93708.27
2018-08-22T22:31:51.372Z,93702.56
2018-08-22T22:34:19.556Z,93702.56
2018-08-22T22:36:47.972Z,93704.94
2018-08-22T22:39:32.499Z,93700.80
2018-08-22T22:42:00.951Z,93697.87
2018-08-22T22:44:29.081Z,93706.88
2018-08-22T22:46:57.109Z,93703.98
2018-08-22T22:49:25.243Z,93700.02
2018-08-22T22:51:53.328Z,93705.04
2018-08-22T22:54:32.597Z,93703.19
2018-08-22T22:57:00.638Z,93704.61
2018-08-22T22:59:28.768Z,93698.19
2018-08-22T23:01:56.798Z,93700.74
2018-08-22T23:04:26.271Z,93698.24
2018-08-22T23:07:32.122Z,93699.86
2018-08-22T23:10:01.354Z,93701.64
2018-08-22T23:12:46.957Z,93697.28
2018-08-22T23:15:22.030Z,93700.16
2018-08-22T23:17:52.144Z,93704.66
2018-08-22T23:20:27.324Z,93699.34
2018-08-22T23:22:55.940Z,93698.41
2018-08-22T23:25:24.415Z,93701.03
2018-08-22T23:27:52.533Z,93697.09
2018-08-22T23:30:27.441Z,93699.68
2018-08-22T23:32:56.778Z,93698.14
2018-08-22T23:35:29.317Z,93702.12
2018-08-22T23:37:58.580Z,93700.51
2018-08-22T23:40:27.652Z,93700.55
2018-08-22T23:42:56.062Z,93703.09
2018-08-22T23:45:24.248Z,93693.14
2018-08-22T23:47:52.581Z,93691.80
2018-08-22T23:50:20.879Z,93698.23
2018-08-22T23:52:50.415Z,93696.02
2018-08-22T23:55:20.165Z,93697.73
2018-08-22T23:57:51.629Z,93701.54
